Main page
METAR-TAF:

METAR-TAF

Airports :

Tiree Airport

Tiree, Scotland

latitude: 56-30N, longitude: 006-53W, elevation: 12 m

Current weather observation

The report was made 30 minutes ago, at 21:20 UTC
Wind 14 kt from the West
Temperature 9°C
Humidity 81%
Pressure 1009 hPa
Visibility 10 km or more

METAR: EGPU 252120Z AUTO 26014KT 9999 NCD 09/06 Q1009 RERA

Time: 22:50 (21:50 UTC)

Forecast

The report was made 7 hours and 48 minutes ago, at 14:02 UTC
Forecast valid from 25 at 15 UTC to 25 at 18 UTC
Wind 22 kt from the West with gusts up to 32 kt
Visibility 10 km or more
Few clouds at a height of 2500 ft
Probability 30% :
Temporary
from 25 at 15 UTC to 25 at 18 UTC
Visibility: 6000 m
rain showers

TAF: EGPU 251402Z 2515/2518 28022G32KT 9999 FEW025 PROB30 TEMPO 2515/2518 6000 SHRA

Weather observations and forecasts of more than 4000 airports (METAR and TAF reports).

The available stations are represented by yellow and red dots on the map.

Hover mouse over dot to see the name of the station.

Then click to see weather observations and forecasts.

To change the map : click on the green buttons with a black cross to zoom in, on the green button with a dash to zoom out, or on the green arrows for adjacent maps.


METAR-TAF: